Time;durP1;ratioP1;P1;durP2;ratioP2;P2;SDS_P1;SDS_P2;PMS_P1;PMS_P2;Temp;Humidity;BMP_temperature;BMP_pressure;BME280_temperature;BME280_humidity;BME280_pressure;Samples;Min_cycle;Max_cycle;Signal;HPM_P1;HPM_P2
2022/01/07 00:01:38;;;;;;;4.95;3.45;;;4.70;83.30;;;3.40;79.04;96346.22;3973134;34;20002;-83
2022/01/07 00:04:06;;;;;;;4.47;3.47;;;4.70;83.20;;;3.40;79.17;96346.22;3994315;34;20322;-83
2022/01/07 00:06:32;;;;;;;4.80;3.20;;;4.70;83.30;;;3.41;78.92;96342.47;3972488;34;20013;-83
2022/01/07 00:08:58;;;;;;;4.35;3.35;;;4.70;83.30;;;3.40;79.15;96340.81;3969745;34;20072;-83
2022/01/07 00:11:25;;;;;;;4.45;3.33;;;4.70;83.30;;;3.40;79.08;96348.94;3968940;34;20314;-84
2022/01/07 00:13:51;;;;;;;4.13;3.10;;;4.70;84.10;;;3.40;79.44;96346.22;3968047;34;20012;-83
2022/01/07 00:16:17;;;;;;;5.70;3.42;;;4.70;83.30;;;3.38;78.79;96349.97;3989079;34;20009;-83
2022/01/07 00:18:44;;;;;;;4.75;3.63;;;4.70;83.30;;;3.39;79.00;96339.97;3970820;34;20402;-83
2022/01/07 00:21:11;;;;;;;5.10;3.50;;;4.70;83.40;;;3.38;79.02;96339.16;3992537;34;20009;-83
2022/01/07 00:23:38;;;;;;;3.85;2.85;;;4.70;83.40;;;3.40;79.44;96351.63;3949598;34;20795;-84
2022/01/07 00:26:04;;;;;;;4.30;2.97;;;4.60;83.10;;;3.37;79.02;96342.06;3970831;34;20019;-83
2022/01/07 00:28:31;;;;;;;5.60;3.25;;;4.70;83.40;;;3.39;79.14;96342.69;3992664;34;20326;-83
2022/01/07 00:30:57;;;;;;;5.32;3.40;;;4.70;83.40;;;3.38;79.09;96338.31;3987832;34;20305;-83
2022/01/07 00:33:23;;;;;;;4.38;3.08;;;4.70;83.20;;;3.38;79.14;96349.97;3944729;34;20202;-83
2022/01/07 00:35:52;;;;;;;4.95;3.05;;;4.60;83.20;;;3.38;79.30;96365.38;3966800;34;20388;-84
2022/01/07 00:38:18;;;;;;;3.70;2.80;;;4.70;83.20;;;3.38;78.85;96370.78;3968075;34;20012;-84
2022/01/07 00:40:45;;;;;;;3.90;3.22;;;4.70;83.30;;;3.36;78.65;96365.59;3965813;34;20305;-84
2022/01/07 00:43:11;;;;;;;5.13;3.63;;;4.70;83.30;;;3.36;79.11;96373.72;3902537;34;20020;-84
2022/01/07 00:45:37;;;;;;;3.58;3.10;;;4.70;83.40;;;3.37;79.17;96375.38;3966198;34;20013;-83
2022/01/07 00:48:04;;;;;;;3.85;2.75;;;4.70;83.40;;;3.37;79.24;96383.50;3966844;34;20628;-84
2022/01/07 00:50:31;;;;;;;3.83;3.13;;;4.70;83.40;;;3.37;79.34;96380.78;3965749;34;20061;-83
2022/01/07 00:52:58;;;;;;;5.70;2.90;;;4.70;83.50;;;3.37;79.02;96383.50;3945017;34;20391;-83
2022/01/07 00:55:26;;;;;;;4.90;3.30;;;4.60;83.30;;;3.37;78.95;96375.38;3966223;34;20325;-84
2022/01/07 00:57:52;;;;;;;4.30;2.70;;;4.60;83.20;;;3.36;79.03;96372.88;3924340;34;20041;-83
2022/01/07 01:00:21;;;;;;;4.82;3.20;;;4.70;83.40;;;3.37;79.17;96374.53;3986881;34;20597;-85
2022/01/07 01:02:48;;;;;;;4.65;3.40;;;4.60;83.30;;;3.35;78.70;96372.06;4010246;34;20002;-85
2022/01/07 01:05:15;;;;;;;4.38;3.47;;;4.60;83.20;;;3.35;79.01;96376.66;3992074;34;20002;-84
2022/01/07 01:07:42;;;;;;;4.18;2.65;;;4.60;83.20;;;3.36;79.08;96384.53;3992358;34;20009;-85
2022/01/07 01:10:08;;;;;;;4.45;2.97;;;4.60;83.30;;;3.35;79.18;96372.06;3992288;34;20284;-84
2022/01/07 01:12:36;;;;;;;5.43;2.97;;;4.60;83.30;;;3.34;78.95;96370.41;3970553;34;20303;-84
2022/01/07 01:15:07;;;;;;;3.45;2.40;;;4.60;83.30;;;3.34;78.88;96370.41;3992343;34;19997;-84
2022/01/07 01:17:33;;;;;;;4.88;3.13;;;4.60;83.20;;;3.35;79.37;96377.47;4014748;34;20662;-85
2022/01/07 01:20:00;;;;;;;4.28;2.90;;;4.60;83.30;;;3.34;79.44;96375.00;3973156;34;20723;-85
2022/01/07 01:22:27;;;;;;;4.18;2.85;;;4.60;83.20;;;3.36;79.20;96383.69;4016285;34;20366;-84
2022/01/07 01:24:53;;;;;;;4.60;3.13;;;4.60;83.30;;;3.34;79.20;96383.13;3972301;34;20007;-85
2022/01/07 01:27:19;;;;;;;3.83;2.75;;;4.60;83.40;;;3.34;79.10;96389.34;3994005;34;20336;-85
2022/01/07 01:29:46;;;;;;;3.83;2.75;;;4.60;83.30;;;3.33;79.37;96376.84;3972826;34;20309;-84
2022/01/07 01:32:12;;;;;;;4.28;2.83;;;4.60;83.40;;;3.35;79.04;96384.78;3971992;34;20326;-84
2022/01/07 01:34:38;;;;;;;4.07;2.90;;;4.60;83.40;;;3.33;78.98;96379.56;3964288;35;20005;-84
2022/01/07 01:37:05;;;;;;;4.78;3.50;;;4.60;83.40;;;3.33;78.75;96374.16;3963719;35;20529;-84
2022/01/07 01:39:31;;;;;;;5.38;3.00;;;4.60;83.20;;;3.34;79.18;96392.06;3963522;35;20010;-84
2022/01/07 01:41:57;;;;;;;4.97;3.00;;;4.60;83.20;;;3.34;79.18;96402.06;3942641;35;20093;-85
2022/01/07 01:44:24;;;;;;;4.60;3.40;;;4.60;83.20;;;3.33;79.12;96390.38;3986292;35;20317;-84
2022/01/07 01:46:50;;;;;;;4.05;3.15;;;4.60;83.10;;;3.34;79.25;96400.16;3965172;35;20009;-84
2022/01/07 01:49:16;;;;;;;5.22;2.85;;;4.60;83.20;;;3.34;79.27;96397.47;3966334;34;20321;-84
2022/01/07 01:51:43;;;;;;;4.65;2.95;;;4.60;83.30;;;3.32;79.14;96394.16;3966887;35;20317;-84
2022/01/07 01:54:09;;;;;;;5.03;2.95;;;4.60;83.20;;;3.34;79.22;96402.06;3964846;35;20208;-85
2022/01/07 01:56:35;;;;;;;3.30;2.78;;;4.60;83.30;;;3.33;79.25;96406.63;3965420;35;20014;-85
2022/01/07 01:59:02;;;;;;;4.18;2.92;;;4.60;83.30;;;3.33;79.16;96406.63;3944290;35;20316;-84
2022/01/07 02:01:28;;;;;;;4.63;3.10;;;4.60;83.30;;;3.32;78.94;96413.09;3965678;34;20017;-84
2022/01/07 02:03:54;;;;;;;4.03;3.22;;;4.60;83.20;;;3.33;78.98;96411.22;3945957;34;20057;-84
2022/01/07 02:06:21;;;;;;;4.13;2.67;;;4.60;83.20;;;3.31;78.79;96408.72;3966547;34;20296;-84
2022/01/07 02:08:48;;;;;;;4.82;2.90;;;4.60;83.30;;;3.32;78.85;96402.25;3944583;34;20353;-84
2022/01/07 02:11:14;;;;;;;4.35;2.80;;;4.60;83.30;;;3.30;79.24;96412.47;3943503;34;20006;-84
2022/01/07 02:13:41;;;;;;;3.90;3.13;;;4.60;83.20;;;3.31;78.97;96410.59;3985671;34;20315;-84
2022/01/07 02:16:07;;;;;;;3.92;2.33;;;4.60;83.30;;;3.33;79.10;96420.16;3963966;34;20037;-85
2022/01/07 02:18:34;;;;;;;3.45;2.75;;;4.60;83.20;;;3.30;79.33;96417.88;3964265;34;20002;-84
2022/01/07 02:21:01;;;;;;;3.63;2.70;;;4.60;83.10;;;3.32;79.37;96423.09;3965334;34;20291;-85
2022/01/07 02:23:27;;;;;;;2.80;2.03;;;4.60;83.30;;;3.31;79.28;96419.53;3957399;34;20010;-85
2022/01/07 02:25:56;;;;;;;3.35;2.60;;;4.60;83.30;;;3.31;79.22;96413.31;3943678;34;20073;-85
2022/01/07 02:28:22;;;;;;;3.92;2.65;;;4.60;83.20;;;3.30;79.02;96417.88;3898769;34;20077;-84
2022/01/07 02:30:48;;;;;;;3.75;2.75;;;4.60;84.00;;;3.29;78.91;96413.50;3984592;34;20002;-85
2022/01/07 02:33:15;;;;;;;3.67;2.60;;;4.60;83.30;;;3.30;79.12;96417.88;3940783;34;20348;-84
2022/01/07 02:35:45;;;;;;;3.47;2.78;;;4.60;83.20;;;3.31;79.35;96418.72;3982955;34;20280;-85
2022/01/07 02:38:15;;;;;;;4.00;2.70;;;4.60;83.30;;;3.30;79.06;96417.88;3997349;34;20418;-84
2022/01/07 02:40:42;;;;;;;3.13;2.00;;;4.60;83.40;;;3.30;79.02;96417.88;3987616;34;20715;-85
2022/01/07 02:43:08;;;;;;;3.42;2.53;;;4.60;83.40;;;3.28;79.17;96414.59;3944528;34;20037;-85
2022/01/07 02:45:35;;;;;;;4.28;2.47;;;4.60;83.30;;;3.29;78.81;96420.81;3925118;34;20454;-84
2022/01/07 02:48:03;;;;;;;4.07;2.72;;;4.60;83.30;;;3.28;79.13;96422.72;3927789;34;19994;-85
2022/01/07 02:50:38;;;;;;;3.72;2.70;;;4.60;83.30;;;3.29;79.28;96432.44;3949951;34;20253;-84
2022/01/07 02:53:07;;;;;;;4.20;2.97;;;4.60;83.30;;;3.28;78.91;96430.81;3929532;34;20292;-84
2022/01/07 02:55:34;;;;;;;3.85;2.58;;;4.60;83.20;;;3.27;79.09;96444.56;3928217;34;20408;-85
2022/01/07 02:58:00;;;;;;;3.80;2.58;;;4.60;83.20;;;3.27;79.47;96444.56;3990490;34;20133;-85
2022/01/07 03:00:27;;;;;;;3.13;2.55;;;4.60;83.30;;;3.27;79.09;96450.81;3969485;34;20299;-84
2022/01/07 03:02:54;;;;;;;5.10;2.72;;;4.60;83.30;;;3.27;79.20;96461.63;3948562;34;20129;-85
2022/01/07 03:05:21;;;;;;;3.80;2.72;;;4.60;83.40;;;3.28;79.15;96455.19;4010633;34;20319;-84
2022/01/07 03:07:48;;;;;;;3.67;2.78;;;4.60;83.40;;;3.27;79.18;96461.63;3947230;34;20142;-85
2022/01/07 03:10:18;;;;;;;4.05;2.85;;;4.60;83.30;;;3.25;78.91;96461.00;3990526;34;20376;-85
2022/01/07 03:12:45;;;;;;;3.85;2.47;;;4.60;83.20;;;3.26;79.22;96470.78;3948010;34;20592;-84
2022/01/07 03:15:12;;;;;;;4.55;2.88;;;4.60;83.20;;;3.27;79.02;96463.50;3989250;34;20333;-85
2022/01/07 03:17:40;;;;;;;4.45;2.67;;;4.50;83.20;;;3.24;78.82;96467.47;3989475;34;20296;-85
2022/01/07 03:20:14;;;;;;;3.03;2.25;;;4.50;83.20;;;3.26;78.95;96465.38;3948868;34;19997;-84
2022/01/07 03:22:41;;;;;;;3.75;3.08;;;4.50;83.20;;;3.23;79.12;96466.63;3948721;34;20018;-84
2022/01/07 03:25:09;;;;;;;4.63;3.08;;;4.50;83.40;;;3.25;78.88;96474.53;3989387;34;20306;-84
2022/01/07 03:27:35;;;;;;;5.93;2.83;;;4.50;83.20;;;3.23;79.41;96461.22;3967868;34;20229;-84
2022/01/07 03:30:03;;;;;;;4.00;3.15;;;4.50;83.40;;;3.23;78.94;96466.63;3946439;34;20343;-83
2022/01/07 03:32:29;;;;;;;3.80;2.70;;;4.50;83.40;;;3.23;79.11;96468.50;3989145;34;20013;-85
2022/01/07 03:34:55;;;;;;;4.90;3.53;;;4.50;83.30;;;3.23;79.08;96471.22;3969574;34;20006;-83
2022/01/07 03:37:22;;;;;;;5.22;3.20;;;4.50;83.20;;;3.23;78.95;96484.75;3969748;34;20329;-85
2022/01/07 03:39:48;;;;;;;4.60;3.15;;;4.50;83.30;;;3.24;79.36;96478.28;3989768;34;20276;-84
2022/01/07 03:42:14;;;;;;;5.20;3.33;;;4.50;83.40;;;3.23;79.29;96492.88;4011309;34;20002;-84
2022/01/07 03:44:40;;;;;;;3.85;3.22;;;4.50;83.20;;;3.23;79.00;96509.91;4009380;34;20683;-85
2022/01/07 03:47:07;;;;;;;4.63;3.35;;;4.50;83.20;;;3.22;78.79;96500.16;3966564;34;20290;-84
2022/01/07 03:49:33;;;;;;;6.95;3.40;;;4.50;83.20;;;3.23;78.80;96498.28;3966070;34;20325;-84
2022/01/07 03:51:59;;;;;;;5.05;3.40;;;4.50;83.30;;;3.23;79.12;96509.09;4012940;34;20328;-84
2022/01/07 03:54:26;;;;;;;5.35;3.20;;;4.50;83.20;;;3.22;78.68;96507.44;3946098;34;20308;-85
2022/01/07 03:56:52;;;;;;;5.40;3.83;;;4.50;83.90;;;3.19;79.02;96503.28;4008979;34;20073;-84
2022/01/07 03:59:18;;;;;;;4.70;3.17;;;4.50;83.20;;;3.20;79.14;96501.41;3973186;34;20010;-84
2022/01/07 04:01:44;;;;;;;4.85;3.70;;;4.50;83.30;;;3.19;79.26;96515.97;3945225;34;20311;-84
2022/01/07 04:04:11;;;;;;;5.40;3.28;;;4.50;83.30;;;3.19;78.86;96510.56;3965982;34;20307;-85
2022/01/07 04:06:37;;;;;;;4.47;3.47;;;4.50;83.20;;;3.20;78.89;96520.34;3968595;34;20009;-85
2022/01/07 04:09:03;;;;;;;4.90;3.50;;;4.50;83.20;;;3.19;78.96;96524.09;3974260;34;20080;-84
2022/01/07 04:11:30;;;;;;;6.70;3.10;;;4.50;83.10;;;3.17;79.37;96527.03;3951466;34;20367;-84
2022/01/07 04:13:56;;;;;;;5.78;3.72;;;4.50;83.30;;;3.19;79.30;96534.91;3926791;34;20603;-84
2022/01/07 04:16:22;;;;;;;4.78;3.40;;;4.50;83.50;;;3.19;78.81;96534.91;3944988;34;20305;-84
2022/01/07 04:18:49;;;;;;;7.20;3.90;;;4.50;83.40;;;3.19;79.02;96543.03;3926933;34;20646;-85
2022/01/07 04:21:15;;;;;;;5.43;3.63;;;4.50;83.40;;;3.18;78.96;96538.66;3948280;34;20053;-84
2022/01/07 04:23:41;;;;;;;7.00;4.25;;;4.50;83.20;;;3.18;79.27;96533.25;3929163;34;20006;-84
2022/01/07 04:26:08;;;;;;;4.15;3.20;;;4.50;83.30;;;3.18;79.05;96544.06;3974246;34;20327;-85
2022/01/07 04:28:34;;;;;;;4.57;3.33;;;4.50;83.40;;;3.17;79.04;96540.56;3973784;34;20231;-84
2022/01/07 04:31:00;;;;;;;5.53;3.55;;;4.50;83.50;;;3.16;78.96;96538.88;3973524;34;20028;-84
2022/01/07 04:33:29;;;;;;;5.50;3.65;;;4.50;83.20;;;3.15;78.47;96536.41;3972475;34;20325;-84
2022/01/07 04:35:56;;;;;;;6.03;3.75;;;4.50;83.20;;;3.17;78.84;96542.41;3993662;34;20313;-84
2022/01/07 04:38:22;;;;;;;6.07;4.35;;;4.50;83.20;;;3.17;78.92;96537.00;3948816;34;20089;-84
2022/01/07 04:40:49;;;;;;;5.68;3.88;;;4.50;83.40;;;3.15;79.06;96539.13;3951480;34;20357;-84
2022/01/07 04:43:15;;;;;;;5.53;4.30;;;4.50;83.30;;;3.15;78.74;96539.94;3971548;34;20016;-85
2022/01/07 04:45:42;;;;;;;5.72;3.67;;;4.40;83.20;;;3.15;78.66;96542.63;3991973;34;20328;-85
2022/01/07 04:48:08;;;;;;;6.90;3.97;;;4.40;83.20;;;3.15;78.70;96539.94;3969526;34;20005;-83
2022/01/07 04:50:35;;;;;;;6.97;4.50;;;4.40;83.20;;;3.15;78.69;96545.34;3927706;34;20359;-84
2022/01/07 04:53:02;;;;;;;6.78;4.55;;;4.40;83.10;;;3.14;79.11;96546.38;3948090;34;20093;-85
2022/01/07 04:55:36;;;;;;;8.13;4.78;;;4.40;83.20;;;3.15;79.11;96555.34;3990116;34;20232;-84
2022/01/07 04:58:10;;;;;;;6.88;4.30;;;4.40;83.20;;;3.16;78.54;96548.91;3972816;34;20016;-84
2022/01/07 05:00:37;;;;;;;6.57;3.97;;;4.40;83.20;;;3.15;78.93;96558.06;3946183;34;20316;-84
2022/01/07 05:03:03;;;;;;;7.43;4.65;;;4.40;83.20;;;3.14;79.02;96556.38;3986652;34;20018;-85
2022/01/07 05:05:30;;;;;;;6.85;4.40;;;4.40;83.20;;;3.15;78.74;96556.16;3964597;34;20310;-84
2022/01/07 05:07:56;;;;;;;5.78;4.18;;;4.40;83.20;;;3.14;79.09;96557.19;3923380;34;20093;-84
2022/01/07 05:10:23;;;;;;;5.80;4.15;;;4.40;83.10;;;3.15;79.04;96561.56;3964008;34;20286;-84
2022/01/07 05:12:49;;;;;;;9.02;5.32;;;4.40;83.20;;;3.15;78.89;96566.16;3901368;34;19990;-85
2022/01/07 05:15:18;;;;;;;6.80;5.20;;;4.40;83.20;;;3.14;79.11;96561.81;3939655;35;20330;-84
2022/01/07 05:17:44;;;;;;;7.40;4.93;;;4.40;83.10;;;3.14;79.05;96556.38;3915369;35;20306;-84
2022/01/07 05:20:12;;;;;;;7.43;4.63;;;4.40;83.10;;;3.14;79.27;96564.50;3958476;35;20095;-84
2022/01/07 05:22:40;;;;;;;6.90;4.75;;;4.40;83.20;;;3.13;79.08;96558.25;3932760;35;20315;-84
2022/01/07 05:25:07;;;;;;;8.07;5.63;;;4.40;83.30;;;3.14;78.96;96564.50;3952046;35;20312;-83
2022/01/07 05:27:33;;;;;;;10.32;5.80;;;4.40;83.30;;;3.13;78.95;96563.66;3951525;35;20372;-86
2022/01/07 05:30:00;;;;;;;8.10;5.70;;;4.40;84.00;;;3.13;78.90;96574.47;3930524;35;20404;-84
2022/01/07 05:32:26;;;;;;;6.68;5.30;;;4.40;83.20;;;3.15;79.14;96577.00;3911870;35;20030;-84
2022/01/07 05:34:52;;;;;;;8.57;5.78;;;4.40;83.30;;;3.15;79.06;96577.00;3932417;34;20058;-85
2022/01/07 05:37:19;;;;;;;7.78;5.30;;;4.40;83.20;;;3.14;79.23;96559.09;3934689;34;20299;-84
2022/01/07 05:39:45;;;;;;;8.65;5.80;;;4.40;83.30;;;3.14;78.97;96569.91;3935239;34;20301;-84
2022/01/07 05:42:11;;;;;;;9.57;6.10;;;4.40;83.30;;;3.13;79.01;96574.47;3913881;34;20376;-84
2022/01/07 05:44:37;;;;;;;6.93;5.38;;;4.40;83.40;;;3.14;79.20;96575.31;3934182;34;20323;-85
2022/01/07 05:47:04;;;;;;;9.65;6.10;;;4.40;83.40;;;3.14;78.96;96583.44;3955323;34;20297;-84
2022/01/07 05:49:31;;;;;;;8.40;5.80;;;4.40;83.30;;;3.14;79.31;96570.72;3955318;34;20323;-84
2022/01/07 05:51:57;;;;;;;8.23;5.85;;;4.40;83.30;;;3.12;79.41;96577.41;3949068;34;20631;-85
2022/01/07 05:54:23;;;;;;;7.78;6.35;;;4.40;83.30;;;3.13;78.95;96579.88;3954754;34;19998;-84
2022/01/07 05:56:50;;;;;;;8.35;5.90;;;4.40;83.20;;;3.13;79.04;96581.78;3934627;34;20911;-85
2022/01/07 05:59:16;;;;;;;8.80;5.55;;;4.40;83.30;;;3.12;79.29;96588.22;3955042;34;20613;-85
2022/01/07 06:01:42;;;;;;;8.00;6.03;;;4.40;83.20;;;3.13;79.14;96592.59;3936307;34;20325;-85
2022/01/07 06:04:09;;;;;;;8.18;5.88;;;4.40;83.40;;;3.12;79.27;96599.03;3958028;34;20323;-85
2022/01/07 06:06:35;;;;;;;8.75;5.93;;;4.40;84.20;;;3.12;78.85;96610.69;3958738;34;20295;-85
2022/01/07 06:09:01;;;;;;;8.95;6.30;;;4.40;83.20;;;3.12;78.92;96605.28;3922837;34;20009;-84
2022/01/07 06:11:27;;;;;;;8.85;6.60;;;4.40;83.20;;;3.12;79.19;96607.16;3938147;34;20218;-85
2022/01/07 06:13:54;;;;;;;9.35;5.90;;;4.40;83.10;;;3.12;79.24;96620.69;3937952;34;20379;-84
2022/01/07 06:16:20;;;;;;;8.55;6.15;;;4.40;84.10;;;3.10;79.35;96611.94;3937283;34;20069;-84
2022/01/07 06:18:54;;;;;;;8.68;6.05;;;4.40;83.40;;;3.11;79.43;96619.84;3959888;34;20020;-85
2022/01/07 06:21:21;;;;;;;8.65;5.85;;;4.40;83.30;;;3.13;79.13;96619.66;3964744;34;20014;-85
2022/01/07 06:23:47;;;;;;;8.60;6.10;;;4.40;83.30;;;3.12;79.05;96637.72;3939529;34;20320;-85
2022/01/07 06:26:13;;;;;;;8.50;6.03;;;4.40;83.30;;;3.09;79.20;96637.34;3941299;34;20388;-85
2022/01/07 06:28:40;;;;;;;9.75;7.15;;;4.40;83.20;;;3.10;78.71;96630.88;3943040;34;20727;-85
2022/01/07 06:31:06;;;;;;;9.45;6.50;;;4.40;83.20;;;3.10;78.94;96637.13;3946627;34;20013;-85
2022/01/07 06:33:33;;;;;;;9.20;6.80;;;4.40;83.20;;;3.13;79.42;96649.41;4011460;34;20013;-84
2022/01/07 06:35:59;;;;;;;9.18;6.95;;;4.40;83.30;;;3.10;79.17;96641.72;3987238;34;20307;-85
2022/01/07 06:38:25;;;;;;;8.65;6.65;;;4.40;83.30;;;3.09;78.82;96640.88;3942966;34;20069;-85
2022/01/07 06:40:51;;;;;;;10.52;7.55;;;4.40;83.40;;;3.10;79.25;96644.41;3986074;34;20017;-85
2022/01/07 06:43:18;;;;;;;13.02;7.80;;;4.40;83.30;;;3.10;79.31;96641.72;3964701;34;20649;-85
2022/01/07 06:45:44;;;;;;;11.00;7.82;;;4.40;83.40;;;3.08;79.28;96647.34;3985579;34;20612;-85
2022/01/07 06:48:10;;;;;;;9.77;6.95;;;4.40;83.20;;;3.09;79.25;96649.00;3963510;34;20002;-85
2022/01/07 06:50:36;;;;;;;13.32;8.98;;;4.40;83.30;;;3.11;78.98;96654.19;3963850;34;20324;-85
2022/01/07 06:53:03;;;;;;;10.32;7.90;;;4.40;83.20;;;3.11;78.83;96654.19;3943083;34;20286;-85
2022/01/07 06:55:29;;;;;;;10.95;8.00;;;4.40;83.30;;;3.10;79.19;96649.81;3942247;34;20056;-85
2022/01/07 06:57:56;;;;;;;13.23;8.55;;;4.40;83.30;;;3.11;79.43;96659.59;3977277;34;20069;-85
2022/01/07 07:00:22;;;;;;;14.25;8.90;;;4.40;83.20;;;3.12;78.83;96664.78;4020217;30;20104;-88
2022/01/07 07:02:49;;;;;;;15.43;9.65;;;4.40;83.20;;;3.12;79.17;96663.97;4036637;34;20001;-88
2022/01/07 07:05:15;;;;;;;13.02;9.70;;;4.40;83.10;;;3.10;79.04;96672.28;4015043;34;20088;-88
2022/01/07 07:07:41;;;;;;;14.00;9.43;;;4.40;83.10;;;3.11;78.84;96678.53;3994377;34;20573;-88
2022/01/07 07:10:08;;;;;;;15.80;9.30;;;4.40;83.10;;;3.07;79.29;96676.25;4039530;34;20382;-89
2022/01/07 07:12:38;;;;;;;14.95;9.60;;;4.40;83.20;;;3.11;79.10;96676.66;3997497;34;20687;-89
2022/01/07 07:15:04;;;;;;;18.58;10.82;;;4.40;83.40;;;3.11;79.00;96678.53;3974320;34;20302;-88
2022/01/07 07:17:31;;;;;;;14.85;10.73;;;4.40;83.10;;;3.11;78.82;96676.66;4028393;34;20291;-87
2022/01/07 07:19:57;;;;;;;15.35;10.05;;;4.40;83.20;;;3.11;78.94;96673.13;4044567;34;20065;-88
2022/01/07 07:22:24;;;;;;;17.52;11.02;;;4.40;83.30;;;3.11;79.15;96673.13;4022221;34;20291;-88
2022/01/07 07:24:50;;;;;;;16.13;10.80;;;4.40;83.20;;;3.11;79.09;96670.41;4021190;34;20088;-88
2022/01/07 07:27:16;;;;;;;15.75;10.57;;;4.40;83.40;;;3.07;79.07;96665.44;4065794;34;20013;-87
2022/01/07 07:29:43;;;;;;;17.75;11.68;;;4.40;83.40;;;3.10;79.10;96671.47;4043827;34;20305;-88
2022/01/07 07:32:10;;;;;;;17.58;12.13;;;4.40;83.30;;;3.11;79.34;96660.41;4041884;34;20361;-88
2022/01/07 07:37:07;;;;;;;16.38;11.18;;;4.40;83.30;;;3.12;78.90;96672.91;4022882;34;20365;-88
2022/01/07 07:39:34;;;;;;;20.40;12.23;;;4.40;83.20;;;3.12;79.25;96672.09;4042199;34;20366;-89
2022/01/07 07:42:00;;;;;;;17.50;11.73;;;4.40;83.30;;;3.12;78.79;96674.78;4041626;34;20004;-89
2022/01/07 07:44:30;;;;;;;17.05;12.32;;;4.40;83.20;;;3.13;78.93;96671.03;4042723;34;20285;-87
2022/01/07 07:46:58;;;;;;;18.38;12.30;;;4.40;83.30;;;3.11;78.67;96668.53;4041616;34;20291;-88
2022/01/07 07:49:24;;;;;;;19.80;12.75;;;4.40;83.10;;;3.11;79.15;96682.06;4064286;34;20306;-89
2022/01/07 07:51:52;;;;;;;20.90;12.82;;;4.40;83.20;;;3.12;79.41;96681.03;4022507;34;20328;-88
2022/01/07 07:54:18;;;;;;;18.95;13.05;;;4.40;83.20;;;3.14;78.77;96678.13;4043530;34;20271;-87
2022/01/07 07:56:44;;;;;;;18.88;12.95;;;4.40;83.10;;;3.15;79.35;96686.00;4065682;34;20027;-88
2022/01/07 07:59:11;;;;;;;18.75;12.55;;;4.40;83.10;;;3.15;78.73;96686.00;4043065;34;20303;-88
2022/01/07 08:01:37;;;;;;;19.80;12.88;;;4.40;83.10;;;3.14;78.88;96688.94;4045374;34;20054;-87
2022/01/07 08:04:04;;;;;;;19.45;12.85;;;4.40;82.90;;;3.16;78.62;96695.78;4024962;34;20075;-88
2022/01/07 08:06:30;;;;;;;22.08;13.07;;;4.40;83.00;;;3.14;79.19;96695.16;4046416;34;20008;-87
2022/01/07 08:08:57;;;;;;;20.83;14.07;;;4.40;83.10;;;3.16;78.88;96697.69;4045166;34;20289;-88
2022/01/07 08:11:27;;;;;;;19.00;13.00;;;4.40;83.00;;;3.14;78.99;96684.34;4001191;34;20008;-88
2022/01/07 08:16:38;;;;;;;21.95;14.10;;;4.40;83.10;;;3.16;78.80;96703.09;4022142;34;20001;-88
2022/01/07 08:19:04;;;;;;;18.10;13.20;;;4.40;83.00;;;3.17;79.02;96704.72;4061079;34;20011;-88
2022/01/07 08:21:31;;;;;;;18.92;13.43;;;4.50;83.20;;;3.13;78.47;96700.81;4010485;34;20317;-88
2022/01/07 08:23:59;;;;;;;20.63;13.93;;;4.50;83.20;;;3.14;78.95;96700.59;4008527;34;20374;-88
2022/01/07 08:26:26;;;;;;;20.17;12.85;;;4.40;83.00;;;3.15;78.98;96707.66;4029833;34;20311;-88
2022/01/07 08:28:57;;;;;;;16.85;12.32;;;4.50;83.20;;;3.15;79.16;96701.44;4030334;34;20351;-88
2022/01/07 08:36:45;;;;;;;19.70;13.20;;;4.50;83.10;;;3.17;78.46;96715.56;4031028;34;20007;-87
2022/01/07 08:39:11;;;;;;;20.55;13.68;;;4.50;83.10;;;3.16;78.84;96712.03;3969556;34;20013;-87
2022/01/07 08:41:38;;;;;;;18.33;12.38;;;4.40;83.00;;;3.15;78.89;96706.84;4034704;34;20326;-87
2022/01/07 08:44:05;;;;;;;18.77;11.98;;;4.50;83.10;;;3.16;78.74;96711.22;4005912;34;20375;-89
2022/01/07 08:46:31;;;;;;;17.23;12.40;;;4.50;83.10;;;3.17;78.78;96705.56;4026463;34;20092;-87
2022/01/07 08:48:58;;;;;;;18.15;12.30;;;4.50;83.00;;;3.14;78.97;96695.16;4005069;34;20300;-88
2022/01/07 08:51:26;;;;;;;16.65;12.13;;;4.50;83.10;;;3.18;78.77;96709.09;4026687;34;20031;-87
2022/01/07 08:53:53;;;;;;;21.25;13.43;;;4.40;83.00;;;3.16;78.67;96697.69;4026644;34;20008;-86
2022/01/07 08:56:23;;;;;;;18.27;12.13;;;4.50;83.10;;;3.18;78.69;96706.41;3982527;34;20001;-86
2022/01/07 08:58:54;;;;;;;18.33;12.30;;;4.40;82.90;;;3.17;78.97;96697.47;4029933;34;20345;-88
2022/01/07 09:01:22;;;;;;;17.05;11.32;;;4.40;82.80;;;3.16;78.55;96700.38;4006175;34;20388;-88
2022/01/07 09:03:48;;;;;;;19.95;12.15;;;4.40;82.80;;;3.15;78.82;96696.03;4006540;34;20308;-88
2022/01/07 09:06:14;;;;;;;19.33;12.48;;;4.50;83.00;;;3.17;78.71;96700.16;4006535;34;20013;-88
2022/01/07 09:08:41;;;;;;;17.35;12.20;;;4.50;83.00;;;3.17;78.94;96700.16;4007870;34;20319;-87
2022/01/07 09:11:07;;;;;;;15.25;11.48;;;4.50;82.90;;;3.17;78.94;96696.63;3985648;34;20005;-88
2022/01/07 09:13:33;;;;;;;18.58;11.20;;;4.50;83.00;;;3.17;78.77;96693.91;3967829;34;20009;-87
2022/01/07 09:16:00;;;;;;;18.17;12.02;;;4.50;83.10;;;3.18;78.85;96695.56;3991388;34;20357;-87
2022/01/07 09:18:26;;;;;;;14.20;10.70;;;4.40;82.90;;;3.18;78.69;96687.47;4013002;34;20300;-87
2022/01/07 09:20:54;;;;;;;16.23;11.80;;;4.50;83.00;;;3.19;78.49;96683.72;3965953;34;20222;-87
2022/01/07 09:23:20;;;;;;;16.10;11.18;;;4.50;82.80;;;3.21;78.80;96678.91;3993132;34;20187;-87
2022/01/07 09:25:47;;;;;;;17.77;10.85;;;4.50;82.80;;;3.22;78.61;96675.19;3970645;34;20301;-87
2022/01/07 09:28:13;;;;;;;16.48;10.88;;;4.50;82.80;;;3.23;78.51;96677.66;4035251;34;20013;-87
2022/01/07 09:30:39;;;;;;;17.02;11.25;;;4.50;82.70;;;3.26;78.28;96681.00;4030001;34;20278;-87
2022/01/07 09:33:06;;;;;;;15.40;10.50;;;4.50;82.70;;;3.27;78.48;96672.69;4017958;34;20288;-87
2022/01/07 09:35:32;;;;;;;15.18;10.32;;;4.50;82.60;;;3.29;78.50;96675.97;4016048;34;20057;-86
2022/01/07 09:37:59;;;;;;;18.25;10.52;;;4.60;82.60;;;3.29;78.20;96681.38;4034178;34;20657;-87
2022/01/07 09:40:25;;;;;;;12.23;9.55;;;4.60;82.50;;;3.32;78.22;96670.16;4058899;34;20261;-87
2022/01/07 09:43:03;;;;;;;15.55;10.68;;;4.60;82.40;;;3.33;78.46;96671.00;4018113;34;20142;-86
2022/01/07 09:45:32;;;;;;;15.60;9.93;;;4.60;82.40;;;3.36;78.34;96674.09;4039681;34;20008;-87
2022/01/07 09:47:58;;;;;;;14.00;9.18;;;4.60;82.40;;;3.37;78.22;96655.97;4018111;34;19996;-86
2022/01/07 09:50:25;;;;;;;12.70;9.60;;;4.70;82.50;;;3.37;77.94;96655.97;3997701;34;20636;-87
2022/01/07 09:52:52;;;;;;;13.40;9.52;;;4.70;82.40;;;3.36;78.44;96649.75;4019725;34;20323;-87
2022/01/07 09:55:19;;;;;;;13.00;9.05;;;4.70;82.40;;;3.42;78.19;96658.06;4019467;34;20071;-87
2022/01/07 09:57:45;;;;;;;13.70;9.45;;;4.70;82.30;;;3.42;78.02;96652.66;4020630;34;20012;-87
2022/01/07 10:00:12;;;;;;;14.02;9.13;;;4.70;82.30;;;3.44;78.51;96653.25;4020152;34;20012;-87
2022/01/07 10:03:15;;;;;;;14.55;9.52;;;4.70;82.30;;;3.46;78.11;96653.88;3978729;34;20314;-86
2022/01/07 10:05:49;;;;;;;12.73;9.25;;;4.70;82.30;;;3.48;78.11;96654.50;4019604;34;20040;-87
2022/01/07 10:08:28;;;;;;;12.35;8.60;;;4.80;82.30;;;3.49;78.23;96642.63;4016485;34;20274;-87
2022/01/07 10:11:16;;;;;;;11.95;7.78;;;4.80;82.30;;;3.50;78.17;96647.00;4016332;34;20012;-86
2022/01/07 10:13:48;;;;;;;13.65;9.13;;;4.80;82.30;;;3.51;77.94;96637.81;3974592;34;20299;-86
2022/01/07 10:16:20;;;;;;;12.48;7.97;;;4.80;82.30;;;3.50;78.03;96634.28;3994247;34;20385;-87
2022/01/07 10:18:47;;;;;;;10.48;7.90;;;4.80;82.20;;;3.52;78.09;96631.38;4016223;34;20326;-87
2022/01/07 10:21:16;;;;;;;10.13;7.30;;;4.80;82.30;;;3.54;78.30;96629.28;3952576;34;20320;-86
2022/01/07 10:23:45;;;;;;;12.57;8.20;;;4.80;82.30;;;3.59;77.87;96625.94;3994639;34;20252;-86
2022/01/07 10:26:18;;;;;;;10.15;7.72;;;4.80;82.10;;;3.61;77.69;96630.06;4015306;34;20377;-87
2022/01/07 10:28:45;;;;;;;11.02;8.18;;;4.90;82.10;;;3.63;78.09;96622.56;4017484;34;20020;-87
2022/01/07 10:31:23;;;;;;;11.55;7.90;;;4.90;81.90;;;3.66;78.16;96614.03;3994251;34;20379;-85
2022/01/07 10:33:49;;;;;;;10.00;7.45;;;4.90;81.90;;;3.67;78.12;96612.97;4036606;34;20428;-86
2022/01/07 10:36:20;;;;;;;10.40;7.28;;;5.00;81.80;;;3.67;78.01;96606.72;3972271;34;20396;-85
2022/01/07 10:39:02;;;;;;;10.65;7.40;;;5.00;81.70;;;3.71;77.59;96612.53;3975985;34;20012;-86